createdAt,value
2018-02-04T00:01:36.492Z,15.55
2018-02-04T00:04:47.430Z,11.12
2018-02-04T00:07:57.748Z,12.70
2018-02-04T00:11:07.525Z,16.10
2018-02-04T00:14:17.417Z,10.70
2018-02-04T00:17:27.154Z,12.23
2018-02-04T00:20:37.006Z,10.65
2018-02-04T00:23:46.807Z,9.15
2018-02-04T00:26:56.647Z,11.12
2018-02-04T00:30:06.316Z,11.60
2018-02-04T00:33:16.308Z,11.95
2018-02-04T00:36:25.997Z,10.05
2018-02-04T00:39:37.175Z,11.73
2018-02-04T00:42:47.511Z,12.70
2018-02-04T00:45:57.393Z,12.40
2018-02-04T00:49:07.310Z,10.23
2018-02-04T00:52:17.182Z,11.50
2018-02-04T00:55:27.274Z,13.20
2018-02-04T00:58:36.815Z,10.57
2018-02-04T01:01:46.800Z,12.32
2018-02-04T01:04:56.520Z,9.25
2018-02-04T01:08:06.454Z,9.55
2018-02-04T01:11:17.245Z,13.60
2018-02-04T01:14:27.358Z,9.90
2018-02-04T01:17:37.905Z,10.68
2018-02-04T01:20:48.187Z,12.05
2018-02-04T01:23:58.840Z,12.57
2018-02-04T01:27:08.579Z,11.82
2018-02-04T01:30:18.453Z,8.25
2018-02-04T01:33:28.411Z,11.18
2018-02-04T01:36:38.226Z,8.48
2018-02-04T01:39:48.119Z,10.32
2018-02-04T01:42:57.858Z,10.10
2018-02-04T01:46:07.682Z,9.55
2018-02-04T01:49:17.673Z,7.90
2018-02-04T01:52:27.607Z,6.72
2018-02-04T01:55:38.397Z,9.07
2018-02-04T01:58:48.454Z,8.23
2018-02-04T02:01:58.169Z,9.32
2018-02-04T02:05:08.444Z,8.38
2018-02-04T02:08:17.714Z,8.00
2018-02-04T02:15:03.797Z,9.95
2018-02-04T02:18:13.666Z,11.25
2018-02-04T02:21:23.529Z,7.85
2018-02-04T02:24:33.495Z,9.02
2018-02-04T02:27:44.935Z,10.80
2018-02-04T02:30:55.112Z,8.50
2018-02-04T02:34:04.543Z,9.35
2018-02-04T02:37:14.695Z,9.98
2018-02-04T02:40:24.555Z,10.60
2018-02-04T02:43:34.820Z,10.02
2018-02-04T02:46:44.710Z,9.23
2018-02-04T02:49:54.777Z,9.50
2018-02-04T02:53:05.422Z,8.32
2018-02-04T02:56:15.410Z,12.48
2018-02-04T02:59:26.338Z,10.93
2018-02-04T03:02:36.151Z,8.88
2018-02-04T03:05:46.013Z,10.75
2018-02-04T03:08:55.989Z,8.10
2018-02-04T03:12:05.762Z,9.98
2018-02-04T03:15:16.504Z,9.02
2018-02-04T03:18:26.649Z,8.43
2018-02-04T03:21:37.279Z,8.27
2018-02-04T03:24:47.227Z,12.32
2018-02-04T03:27:56.939Z,9.15
2018-02-04T03:31:06.887Z,9.45
2018-02-04T03:34:16.816Z,8.48
2018-02-04T03:37:27.414Z,8.60
2018-02-04T03:40:37.524Z,8.43
2018-02-04T03:43:48.178Z,7.97
2018-02-04T03:46:58.801Z,9.02
2018-02-04T03:50:08.594Z,9.38
2018-02-04T03:53:18.526Z,8.50
2018-02-04T03:56:28.239Z,8.65
2018-02-04T03:59:38.962Z,9.13
2018-02-04T04:02:49.518Z,10.65
2018-02-04T04:05:59.466Z,10.75
2018-02-04T04:09:10.221Z,9.63
2018-02-04T04:12:20.971Z,8.43
2018-02-04T04:15:30.693Z,9.43
2018-02-04T04:18:40.519Z,9.07
2018-02-04T04:21:50.060Z,9.63
2018-02-04T04:25:00.080Z,11.50
2018-02-04T04:28:10.149Z,9.95
2018-02-04T04:31:20.261Z,10.98
2018-02-04T04:34:30.379Z,10.52
2018-02-04T04:37:40.354Z,10.68
2018-02-04T04:40:50.099Z,7.97
2018-02-04T04:43:59.811Z,8.88
2018-02-04T04:47:09.544Z,6.55
2018-02-04T04:50:20.274Z,8.75
2018-02-04T04:53:30.410Z,8.70
2018-02-04T04:56:39.998Z,9.00
2018-02-04T04:59:49.755Z,7.05
2018-02-04T05:03:00.438Z,10.80
2018-02-04T05:06:10.501Z,10.05
2018-02-04T05:09:20.302Z,11.12
2018-02-04T05:12:31.029Z,11.05
2018-02-04T05:15:41.075Z,10.77
2018-02-04T05:18:51.873Z,11.25
2018-02-04T05:22:02.103Z,10.63
2018-02-04T05:25:12.298Z,10.75
2018-02-04T05:28:22.085Z,12.27
2018-02-04T05:31:31.835Z,13.23
2018-02-04T05:34:41.546Z,11.50
2018-02-04T05:37:51.463Z,10.85
2018-02-04T05:41:01.294Z,11.30
2018-02-04T05:44:10.890Z,11.38
2018-02-04T05:47:20.781Z,10.85
2018-02-04T05:50:30.619Z,11.25
2018-02-04T05:53:40.758Z,11.35
2018-02-04T05:56:50.623Z,12.48
2018-02-04T06:00:01.144Z,9.43
2018-02-04T06:03:11.900Z,12.23
2018-02-04T06:06:22.042Z,11.00
2018-02-04T06:09:32.549Z,10.23
2018-02-04T06:12:42.575Z,12.52
2018-02-04T06:15:53.177Z,10.43
2018-02-04T06:19:03.436Z,10.57
2018-02-04T06:22:13.207Z,13.43
2018-02-04T06:25:23.703Z,12.45
2018-02-04T06:28:34.033Z,12.25
2018-02-04T06:31:44.379Z,13.55
2018-02-04T06:34:53.984Z,14.30
2018-02-04T06:38:04.554Z,12.23
2018-02-04T06:41:14.640Z,11.30
2018-02-04T06:44:24.406Z,13.55
2018-02-04T06:47:35.090Z,13.88
2018-02-04T06:50:46.022Z,12.65
2018-02-04T06:53:56.331Z,13.65
2018-02-04T06:57:06.244Z,13.50
2018-02-04T07:00:16.128Z,11.00
2018-02-04T07:03:26.119Z,12.85
2018-02-04T07:06:36.889Z,13.90
2018-02-04T07:09:46.728Z,12.50
2018-02-04T07:12:57.431Z,15.50
2018-02-04T07:16:07.823Z,13.35
2018-02-04T07:19:18.335Z,12.73
2018-02-04T07:22:28.631Z,13.73
2018-02-04T07:25:38.718Z,13.40
2018-02-04T07:28:48.554Z,15.88
2018-02-04T07:31:58.316Z,13.02
2018-02-04T07:35:08.277Z,15.13
2018-02-04T07:38:18.205Z,12.32
2018-02-04T07:41:28.132Z,12.63
2018-02-04T07:44:38.935Z,14.55
2018-02-04T07:47:49.734Z,11.12
2018-02-04T07:51:00.042Z,13.40
2018-02-04T07:54:09.659Z,12.43
2018-02-04T07:57:19.704Z,13.55
2018-02-04T08:00:29.432Z,16.08
2018-02-04T08:03:39.250Z,12.73
2018-02-04T08:06:49.061Z,12.35
2018-02-04T08:09:58.986Z,10.50
2018-02-04T08:13:08.909Z,12.73
2018-02-04T08:16:18.765Z,14.13
2018-02-04T08:19:28.549Z,14.85
2018-02-04T08:22:39.201Z,14.10
2018-02-04T08:25:49.359Z,11.50
2018-02-04T08:29:00.065Z,11.68
2018-02-04T08:32:10.214Z,13.07
2018-02-04T08:35:20.490Z,13.15
2018-02-04T08:38:30.230Z,15.88
2018-02-04T08:41:39.989Z,14.20
2018-02-04T08:44:50.163Z,12.63
2018-02-04T08:47:59.973Z,15.10
2018-02-04T08:51:09.975Z,15.75
2018-02-04T08:54:20.734Z,15.70
2018-02-04T08:57:30.883Z,14.18
2018-02-04T09:00:41.397Z,6.45
2018-02-04T09:03:51.594Z,14.80
2018-02-04T09:07:02.238Z,14.50
2018-02-04T09:10:12.363Z,10.13
2018-02-04T09:13:22.319Z,15.50
2018-02-04T09:16:32.146Z,13.68
2018-02-04T09:19:41.955Z,15.07
2018-02-04T09:22:51.995Z,16.20
2018-02-04T09:26:01.870Z,13.45
2018-02-04T09:29:11.772Z,9.00
2018-02-04T09:32:22.376Z,12.65
2018-02-04T09:35:32.246Z,11.55
2018-02-04T09:38:42.073Z,9.15
2018-02-04T09:41:52.907Z,8.50
2018-02-04T09:45:03.271Z,13.75
2018-02-04T09:48:13.099Z,12.07
2018-02-04T09:51:23.718Z,10.55
2018-02-04T09:54:34.385Z,14.63
2018-02-04T09:57:44.136Z,12.25
2018-02-04T10:00:53.971Z,12.45
2018-02-04T10:04:04.529Z,9.23
2018-02-04T10:07:14.767Z,15.95
2018-02-04T10:10:25.184Z,15.77
2018-02-04T10:13:34.878Z,13.40
2018-02-04T10:16:44.851Z,11.18
2018-02-04T10:19:55.499Z,12.07
2018-02-04T10:23:05.189Z,17.83
2018-02-04T10:26:15.822Z,16.10
2018-02-04T10:29:25.646Z,19.40
2018-02-04T10:32:35.630Z,18.73
2018-02-04T10:35:45.592Z,19.50
2018-02-04T10:38:55.398Z,11.18
2018-02-04T10:42:07.217Z,18.12
2018-02-04T10:45:17.740Z,7.75
2018-02-04T10:48:31.952Z,17.70
2018-02-04T10:51:48.871Z,14.60
2018-02-04T10:54:59.274Z,17.52
2018-02-04T10:58:09.001Z,13.98
2018-02-04T11:01:19.586Z,8.65
2018-02-04T11:04:29.435Z,15.07
2018-02-04T11:07:39.316Z,12.95
2018-02-04T11:10:49.064Z,13.25
2018-02-04T11:14:00.023Z,16.62
2018-02-04T11:17:10.342Z,7.82
2018-02-04T11:20:20.439Z,13.05
2018-02-04T11:23:30.174Z,12.30
2018-02-04T11:26:40.978Z,13.57
2018-02-04T11:29:51.727Z,14.65
2018-02-04T11:33:01.846Z,15.38
2018-02-04T11:36:11.604Z,15.93
2018-02-04T11:39:21.584Z,16.77
2018-02-04T11:42:32.587Z,14.95
2018-02-04T11:45:42.845Z,12.57
2018-02-04T11:48:52.471Z,17.25
2018-02-04T11:52:02.573Z,14.87
2018-02-04T11:55:13.050Z,13.52
2018-02-04T11:58:23.060Z,15.90
2018-02-04T12:01:33.779Z,13.68
2018-02-04T12:04:44.059Z,14.85
2018-02-04T12:07:54.038Z,16.60
2018-02-04T12:11:03.925Z,14.77
2018-02-04T12:14:13.883Z,19.02
2018-02-04T12:17:24.693Z,18.08
2018-02-04T12:20:34.842Z,14.77
2018-02-04T12:23:45.263Z,14.73
2018-02-04T12:26:55.160Z,13.93
2018-02-04T12:30:05.647Z,13.30
2018-02-04T12:33:16.505Z,16.30
2018-02-04T12:36:26.816Z,16.23
2018-02-04T12:39:38.089Z,12.85
2018-02-04T12:42:48.515Z,15.15
2018-02-04T12:45:59.645Z,18.30
2018-02-04T12:49:10.969Z,15.90
2018-02-04T12:52:20.578Z,13.75
2018-02-04T12:55:30.530Z,12.98
2018-02-04T12:58:40.226Z,11.85
2018-02-04T13:01:50.982Z,15.00
2018-02-04T13:05:01.136Z,12.98
2018-02-04T13:08:11.664Z,12.90
2018-02-04T13:11:22.582Z,18.20
2018-02-04T13:14:32.798Z,14.60
2018-02-04T13:17:42.563Z,13.25
2018-02-04T13:20:52.401Z,14.10
2018-02-04T13:24:02.235Z,13.82
2018-02-04T13:27:12.861Z,17.60
2018-02-04T13:30:23.898Z,13.65
2018-02-04T13:33:34.026Z,16.58
2018-02-04T13:36:44.695Z,14.60
2018-02-04T13:39:55.102Z,16.02
2018-02-04T13:43:05.541Z,13.02
2018-02-04T13:46:15.845Z,16.35
2018-02-04T13:49:26.670Z,15.13
2018-02-04T13:52:36.409Z,14.43
2018-02-04T13:55:46.842Z,15.00
2018-02-04T13:58:57.446Z,15.90
2018-02-04T14:02:07.484Z,14.27
2018-02-04T14:05:17.524Z,16.25
2018-02-04T14:08:27.296Z,17.05
2018-02-04T14:11:37.855Z,18.65
2018-02-04T14:14:48.262Z,14.85
2018-02-04T14:17:58.039Z,16.70
2018-02-04T14:21:08.095Z,11.80
2018-02-04T14:24:18.530Z,21.85
2018-02-04T14:27:28.509Z,17.40
2018-02-04T14:30:39.052Z,13.20
2018-02-04T14:33:48.909Z,15.43
2018-02-04T14:36:59.524Z,11.52
2018-02-04T14:40:09.748Z,16.83
2018-02-04T14:43:19.761Z,14.43
2018-02-04T14:46:29.494Z,19.70
2018-02-04T14:49:39.403Z,17.62
2018-02-04T14:52:50.473Z,16.20
2018-02-04T14:56:00.388Z,16.65
2018-02-04T14:59:10.895Z,14.98
2018-02-04T15:02:20.256Z,17.48
2018-02-04T15:05:30.068Z,19.83
2018-02-04T15:08:41.009Z,13.02
2018-02-04T15:11:51.349Z,21.55
2018-02-04T15:15:02.011Z,19.40
2018-02-04T15:18:12.595Z,18.05
2018-02-04T15:21:22.609Z,19.30
2018-02-04T15:24:33.689Z,12.05
2018-02-04T15:27:44.118Z,14.43
2018-02-04T15:30:53.870Z,15.27
2018-02-04T15:34:03.837Z,19.48
2018-02-04T15:37:13.522Z,22.02
2018-02-04T15:40:23.675Z,19.10
2018-02-04T15:43:34.188Z,17.35
2018-02-04T15:46:44.066Z,18.05
2018-02-04T15:49:53.871Z,21.15
2018-02-04T15:53:03.767Z,18.27
2018-02-04T15:56:13.896Z,21.33
2018-02-04T15:59:23.838Z,20.98
2018-02-04T16:02:33.731Z,18.67
2018-02-04T16:05:43.716Z,19.48
2018-02-04T16:08:54.165Z,19.42
2018-02-04T16:12:04.155Z,18.15
2018-02-04T16:15:14.246Z,19.42
2018-02-04T16:18:24.383Z,17.58
2018-02-04T16:21:34.341Z,18.52
2018-02-04T16:24:44.179Z,20.50
2018-02-04T16:27:54.122Z,19.75
2018-02-04T16:31:03.998Z,15.40
2018-02-04T16:34:14.729Z,19.87
2018-02-04T16:37:24.655Z,17.50
2018-02-04T16:40:35.257Z,14.60
2018-02-04T16:43:45.398Z,16.62
2018-02-04T16:46:55.213Z,18.33
2018-02-04T16:50:05.107Z,18.23
2018-02-04T16:53:14.862Z,16.67
2018-02-04T16:56:24.086Z,20.10
2018-02-04T16:59:34.667Z,15.38
2018-02-04T17:02:44.365Z,21.08
2018-02-04T17:05:54.059Z,16.80
2018-02-04T17:09:03.092Z,24.23
2018-02-04T17:12:12.797Z,19.40
2018-02-04T17:15:23.618Z,19.25
2018-02-04T17:18:34.077Z,15.68
2018-02-04T17:21:44.616Z,17.73
2018-02-04T17:24:55.030Z,18.33
2018-02-04T17:28:05.125Z,10.23
2018-02-04T17:31:14.414Z,14.00
2018-02-04T17:34:24.738Z,13.38
2018-02-04T17:37:35.542Z,21.12
2018-02-04T17:40:46.034Z,11.15
2018-02-04T17:43:56.513Z,13.57
2018-02-04T17:47:06.426Z,17.37
2018-02-04T17:50:16.159Z,18.92
2018-02-04T17:53:25.934Z,18.08
2018-02-04T17:56:35.612Z,18.20
2018-02-04T17:59:46.348Z,17.15
2018-02-04T18:02:57.158Z,16.20
2018-02-04T18:06:07.246Z,11.90
2018-02-04T18:09:17.775Z,15.60
2018-02-04T18:12:28.001Z,18.77
2018-02-04T18:15:37.775Z,16.83
2018-02-04T18:18:47.675Z,10.25
2018-02-04T18:21:57.479Z,19.10
2018-02-04T18:25:07.378Z,17.08
2018-02-04T18:28:17.957Z,16.65
2018-02-04T18:31:28.266Z,17.08
2018-02-04T18:34:38.178Z,15.35
2018-02-04T18:37:49.006Z,20.45
2018-02-04T18:40:59.264Z,18.08
2018-02-04T18:44:09.698Z,15.35
2018-02-04T18:47:19.684Z,18.67
2018-02-04T18:50:29.601Z,17.25
2018-02-04T18:53:39.574Z,13.40
2018-02-04T18:56:50.294Z,14.80
2018-02-04T19:00:01.255Z,14.63
2018-02-04T19:03:12.231Z,17.20
2018-02-04T19:06:22.660Z,17.10
2018-02-04T19:09:32.855Z,15.60
2018-02-04T19:12:42.827Z,15.90
2018-02-04T19:15:53.166Z,18.83
2018-02-04T19:19:04.361Z,15.07
2018-02-04T19:22:14.286Z,13.90
2018-02-04T19:25:25.076Z,15.43
2018-02-04T19:28:35.216Z,15.00
2018-02-04T19:31:45.372Z,15.57
2018-02-04T19:34:55.437Z,16.40
2018-02-04T19:38:06.001Z,16.80
2018-02-04T19:41:16.093Z,13.68
2018-02-04T19:44:26.165Z,15.43
2018-02-04T19:47:36.996Z,13.43
2018-02-04T19:50:46.998Z,18.08
2018-02-04T19:53:57.067Z,15.43
2018-02-04T19:57:06.933Z,18.12
2018-02-04T20:00:16.951Z,17.60
2018-02-04T20:03:26.918Z,18.33
2018-02-04T20:06:36.734Z,15.45
2018-02-04T20:09:46.596Z,16.12
2018-02-04T20:12:56.497Z,14.60
2018-02-04T20:16:06.396Z,15.65
2018-02-04T20:19:16.154Z,19.12
2018-02-04T20:22:26.237Z,15.25
2018-02-04T20:25:36.912Z,14.95
2018-02-04T20:28:46.708Z,14.23
2018-02-04T20:31:57.406Z,14.65
2018-02-04T20:35:07.414Z,16.95
2018-02-04T20:38:16.738Z,13.48
2018-02-04T20:41:27.575Z,16.65
2018-02-04T20:44:38.610Z,17.58
2018-02-04T20:47:48.737Z,16.87
2018-02-04T20:50:58.669Z,14.65
2018-02-04T20:54:08.056Z,16.67
2018-02-04T20:57:18.741Z,13.18
2018-02-04T21:00:28.388Z,15.38
2018-02-04T21:03:38.799Z,12.75
2018-02-04T21:06:48.879Z,16.83
2018-02-04T21:09:58.486Z,17.08
2018-02-04T21:13:08.438Z,15.32
2018-02-04T21:16:18.333Z,16.17
2018-02-04T21:19:28.976Z,14.70
2018-02-04T21:22:39.545Z,15.25
2018-02-04T21:25:49.336Z,15.80
2018-02-04T21:29:00.808Z,16.23
2018-02-04T21:32:10.845Z,17.87
2018-02-04T21:35:20.828Z,15.93
2018-02-04T21:38:31.378Z,15.57
2018-02-04T21:41:41.205Z,14.15
2018-02-04T21:44:51.076Z,16.48
2018-02-04T21:48:00.908Z,14.38
2018-02-04T21:51:10.738Z,15.27
2018-02-04T21:54:21.518Z,14.70
2018-02-04T21:57:32.181Z,15.02
2018-02-04T22:00:42.043Z,15.65
2018-02-04T22:03:51.952Z,12.75
2018-02-04T22:07:02.102Z,16.83
2018-02-04T22:10:12.339Z,15.05
2018-02-04T22:13:22.409Z,14.30
2018-02-04T22:16:32.199Z,15.80
2018-02-04T22:19:43.100Z,15.20
2018-02-04T22:22:53.628Z,16.87
2018-02-04T22:26:03.899Z,16.02
2018-02-04T22:29:14.698Z,14.38
2018-02-04T22:32:25.112Z,15.90
2018-02-04T22:35:34.330Z,18.58
2018-02-04T22:38:44.694Z,14.68
2018-02-04T22:41:54.592Z,16.17
2018-02-04T22:45:04.302Z,17.20
2018-02-04T22:48:15.035Z,17.35
2018-02-04T22:51:25.207Z,12.37
2018-02-04T22:54:34.866Z,16.25
2018-02-04T22:57:45.023Z,13.27
2018-02-04T23:00:55.738Z,13.62
2018-02-04T23:04:05.775Z,17.70
2018-02-04T23:07:15.356Z,14.87
2018-02-04T23:10:26.692Z,14.95
2018-02-04T23:13:37.171Z,15.38
2018-02-04T23:16:47.104Z,15.45
2018-02-04T23:19:58.061Z,15.25
2018-02-04T23:23:08.170Z,15.52
2018-02-04T23:26:18.771Z,12.82
2018-02-04T23:29:29.862Z,11.18
2018-02-04T23:32:39.966Z,15.50
2018-02-04T23:35:49.503Z,13.02
2018-02-04T23:38:59.735Z,13.98
2018-02-04T23:42:09.944Z,13.82
2018-02-04T23:45:20.643Z,14.30
2018-02-04T23:48:30.849Z,13.82
2018-02-04T23:51:41.412Z,9.55
2018-02-04T23:54:51.647Z,15.52
2018-02-04T23:58:01.443Z,16.10
